createdAt,value
2022-12-09T00:01:08.074Z,1.58
2022-12-09T00:03:36.438Z,1.54
2022-12-09T00:06:07.943Z,1.59
2022-12-09T00:08:36.701Z,1.50
2022-12-09T00:11:05.081Z,1.59
2022-12-09T00:13:34.637Z,1.49
2022-12-09T00:16:07.215Z,1.46
2022-12-09T00:18:35.427Z,1.49
2022-12-09T00:21:13.480Z,1.46
2022-12-09T00:23:41.321Z,1.43
2022-12-09T00:26:09.835Z,1.50
2022-12-09T00:28:39.673Z,1.56
2022-12-09T00:31:08.398Z,1.51
2022-12-09T00:33:36.648Z,1.49
2022-12-09T00:36:06.924Z,1.53
2022-12-09T00:38:34.813Z,1.54
2022-12-09T00:41:02.740Z,1.53
2022-12-09T00:43:30.750Z,1.51
2022-12-09T00:46:00.080Z,1.44
2022-12-09T00:48:28.413Z,1.52
2022-12-09T00:50:56.471Z,1.42
2022-12-09T00:53:25.012Z,1.35
2022-12-09T00:55:53.165Z,1.32
2022-12-09T00:58:21.087Z,1.28
2022-12-09T01:00:49.138Z,1.30
2022-12-09T01:03:19.562Z,1.29
2022-12-09T01:05:47.855Z,1.28
2022-12-09T01:08:16.320Z,1.20
2022-12-09T01:10:46.387Z,1.17
2022-12-09T01:13:15.983Z,1.24
2022-12-09T01:15:44.812Z,1.24
2022-12-09T01:18:13.662Z,1.13
2022-12-09T01:20:43.275Z,1.07
2022-12-09T01:23:11.618Z,0.99
2022-12-09T01:25:39.979Z,1.06
2022-12-09T01:28:07.937Z,1.07
2022-12-09T01:30:38.645Z,1.04
2022-12-09T01:33:06.863Z,0.93
2022-12-09T01:35:35.467Z,0.82
2022-12-09T01:38:04.812Z,0.80
2022-12-09T01:40:33.216Z,0.74
2022-12-09T01:43:01.264Z,0.73
2022-12-09T01:45:44.171Z,0.76
2022-12-09T01:48:14.460Z,0.56
2022-12-09T01:50:47.443Z,0.62
2022-12-09T01:53:19.589Z,0.70
2022-12-09T01:55:47.705Z,0.67
2022-12-09T01:58:16.128Z,0.55
2022-12-09T02:00:45.740Z,0.50
2022-12-09T02:03:14.357Z,0.37
2022-12-09T02:05:43.357Z,0.44
2022-12-09T02:08:13.802Z,0.43
2022-12-09T02:10:53.261Z,0.39
2022-12-09T02:13:29.990Z,0.32
2022-12-09T02:16:00.417Z,0.24
2022-12-09T02:18:36.800Z,0.22
2022-12-09T02:21:10.693Z,0.17
2022-12-09T02:23:45.898Z,0.19
2022-12-09T02:26:22.380Z,0.07
2022-12-09T02:29:14.282Z,0.19
2022-12-09T02:31:56.180Z,0.14
2022-12-09T02:34:29.575Z,0.12
2022-12-09T02:37:03.061Z,0.03
2022-12-09T02:39:36.617Z,0.18
2022-12-09T02:42:07.846Z,0.08
2022-12-09T02:44:37.916Z,0.05
2022-12-09T02:47:08.235Z,0.02
2022-12-09T02:49:39.541Z,-0.04
2022-12-09T02:52:08.093Z,-0.18
2022-12-09T02:54:39.077Z,-0.25
2022-12-09T02:57:14.058Z,-0.30
2022-12-09T02:59:42.014Z,-0.31
2022-12-09T03:02:20.131Z,-0.35
2022-12-09T03:05:02.343Z,-0.41
2022-12-09T03:07:44.060Z,-0.47
2022-12-09T03:10:18.942Z,-0.45
2022-12-09T03:12:53.799Z,-0.49
2022-12-09T03:15:27.582Z,-0.50
2022-12-09T03:17:58.143Z,-0.50
2022-12-09T03:20:31.040Z,-0.56
2022-12-09T03:23:01.646Z,-0.54
2022-12-09T03:25:33.802Z,-0.54
2022-12-09T03:28:04.741Z,-0.78
2022-12-09T03:30:36.772Z,-0.57
2022-12-09T03:33:06.106Z,-0.65
2022-12-09T03:35:39.226Z,-0.61
2022-12-09T03:38:11.033Z,-0.67
2022-12-09T03:40:40.676Z,-0.63
2022-12-09T03:43:14.150Z,-0.67
2022-12-09T03:45:43.259Z,-0.75
2022-12-09T03:48:12.686Z,-0.79
2022-12-09T03:50:49.428Z,-0.69
2022-12-09T03:53:22.653Z,-0.56
2022-12-09T03:55:59.335Z,-0.62
2022-12-09T03:58:29.003Z,-0.68
2022-12-09T04:00:57.424Z,-0.80
2022-12-09T04:03:26.638Z,-0.86
2022-12-09T04:05:55.940Z,-0.93
2022-12-09T04:08:24.050Z,-1.09
2022-12-09T04:10:52.161Z,-1.13
2022-12-09T04:13:20.375Z,-1.00
2022-12-09T04:15:48.372Z,-0.94
2022-12-09T04:18:16.336Z,-0.84
2022-12-09T04:20:44.204Z,-0.80
2022-12-09T04:23:13.481Z,-0.76
2022-12-09T04:25:41.605Z,-0.78
2022-12-09T04:28:09.749Z,-0.76
2022-12-09T04:30:37.611Z,-0.71
2022-12-09T04:33:05.825Z,-0.70
2022-12-09T04:35:33.727Z,-0.65
2022-12-09T04:38:01.542Z,-0.65
2022-12-09T04:40:30.847Z,-0.63
2022-12-09T04:42:58.886Z,-0.58
2022-12-09T04:45:26.838Z,-0.65
2022-12-09T04:47:55.091Z,-0.59
2022-12-09T04:50:23.027Z,-0.53
2022-12-09T04:52:50.948Z,-0.54
2022-12-09T04:55:19.254Z,-0.50
2022-12-09T04:57:48.683Z,-0.40
2022-12-09T05:00:18.009Z,-0.56
2022-12-09T05:02:46.193Z,-0.55
2022-12-09T05:05:14.399Z,-0.34
2022-12-09T05:07:43.249Z,-0.42
2022-12-09T05:10:11.950Z,-0.35
2022-12-09T05:12:40.461Z,-0.37
2022-12-09T05:15:11.058Z,-0.35
2022-12-09T05:17:39.195Z,-0.29
2022-12-09T05:20:09.623Z,-0.28
2022-12-09T05:22:38.002Z,-0.30
2022-12-09T05:25:06.876Z,-0.27
2022-12-09T05:27:34.967Z,-0.17
2022-12-09T05:30:03.583Z,-0.24
2022-12-09T05:32:33.601Z,-0.22
2022-12-09T05:35:02.017Z,-0.29
2022-12-09T05:37:30.230Z,-0.18
2022-12-09T05:39:58.217Z,-0.26
2022-12-09T05:42:26.402Z,-0.27
2022-12-09T05:44:55.297Z,-0.21
2022-12-09T05:47:23.473Z,-0.26
2022-12-09T05:49:53.220Z,-0.16
2022-12-09T05:52:21.634Z,-0.23
2022-12-09T05:54:49.890Z,-0.42
2022-12-09T05:57:17.933Z,-0.37
2022-12-09T05:59:46.462Z,-0.48
2022-12-09T06:02:14.570Z,-0.50
2022-12-09T06:04:42.863Z,-0.52
2022-12-09T06:07:12.482Z,-0.56
2022-12-09T06:09:41.162Z,-0.64
2022-12-09T06:12:09.599Z,-0.60
2022-12-09T06:14:38.231Z,-0.53
2022-12-09T06:17:06.299Z,-0.63
2022-12-09T06:19:35.137Z,-0.64
2022-12-09T06:22:03.457Z,-0.73
2022-12-09T06:24:33.131Z,-0.76
2022-12-09T06:27:00.942Z,-0.75
2022-12-09T06:29:29.495Z,-0.78
2022-12-09T06:31:57.668Z,-0.87
2022-12-09T06:34:26.210Z,-0.81
2022-12-09T06:36:54.270Z,-0.86
2022-12-09T06:39:22.297Z,-0.81
2022-12-09T06:41:51.634Z,-0.93
2022-12-09T06:44:23.477Z,-0.98
2022-12-09T06:46:52.366Z,-0.91
2022-12-09T06:49:20.834Z,-0.89
2022-12-09T06:51:49.330Z,-0.95
2022-12-09T06:54:18.058Z,-0.97
2022-12-09T06:56:46.505Z,-1.00
2022-12-09T06:59:16.189Z,-1.14
2022-12-09T07:01:45.785Z,-1.17
2022-12-09T07:04:15.740Z,-1.08
2022-12-09T07:06:45.945Z,-1.01
2022-12-09T07:09:16.634Z,-1.06
2022-12-09T07:11:46.357Z,-1.07
2022-12-09T07:14:18.359Z,-0.87
2022-12-09T07:16:46.890Z,-0.85
2022-12-09T07:19:19.178Z,-0.84
2022-12-09T07:21:47.881Z,-0.90
2022-12-09T07:24:16.236Z,-0.89
2022-12-09T07:26:44.576Z,-0.91
2022-12-09T07:29:12.846Z,-0.93
2022-12-09T07:31:42.380Z,-0.93
2022-12-09T07:34:12.069Z,-0.95
2022-12-09T07:36:40.682Z,-0.90
2022-12-09T07:39:12.825Z,-0.81
2022-12-09T07:41:41.298Z,-0.86
2022-12-09T07:44:10.517Z,-0.89
2022-12-09T07:46:39.703Z,-0.92
2022-12-09T07:49:09.535Z,-0.85
2022-12-09T07:51:38.349Z,-0.90
2022-12-09T07:54:06.864Z,-0.72
2022-12-09T07:56:35.095Z,-0.81
2022-12-09T07:59:03.408Z,-0.66
2022-12-09T08:01:31.729Z,-0.70
2022-12-09T08:04:00.337Z,-0.62
2022-12-09T08:06:32.209Z,-0.46
2022-12-09T08:09:01.842Z,-0.46
2022-12-09T08:11:32.152Z,-0.38
2022-12-09T08:14:08.883Z,-0.33
2022-12-09T08:16:39.226Z,-0.39
2022-12-09T08:19:07.365Z,-0.25
2022-12-09T08:21:37.592Z,-0.05
2022-12-09T08:24:07.772Z,-0.11
2022-12-09T08:26:37.563Z,-0.15
2022-12-09T08:29:09.787Z,-0.05
2022-12-09T08:31:41.641Z,-0.09
2022-12-09T08:34:11.274Z,0.03
2022-12-09T08:36:41.079Z,0.10
2022-12-09T08:39:09.996Z,0.15
2022-12-09T08:41:39.936Z,0.16
2022-12-09T08:44:10.396Z,0.08
2022-12-09T08:46:41.794Z,0.02
2022-12-09T08:49:10.055Z,0.07
2022-12-09T08:51:41.232Z,0.14
2022-12-09T08:54:09.405Z,0.15
2022-12-09T08:56:38.010Z,0.17
2022-12-09T08:59:06.834Z,0.19
2022-12-09T09:01:36.066Z,0.23
2022-12-09T09:04:08.456Z,0.43
2022-12-09T09:06:38.397Z,0.63
2022-12-09T09:09:09.282Z,0.69
2022-12-09T09:11:38.470Z,0.77
2022-12-09T09:14:09.207Z,0.83
2022-12-09T09:16:40.845Z,0.81
2022-12-09T09:19:09.709Z,0.86
2022-12-09T09:21:37.876Z,1.16
2022-12-09T09:24:12.213Z,0.96
2022-12-09T09:26:42.607Z,1.20
2022-12-09T09:29:12.674Z,1.35
2022-12-09T09:31:41.152Z,1.52
2022-12-09T09:34:10.239Z,1.34
2022-12-09T09:36:38.448Z,1.75
2022-12-09T09:39:06.909Z,1.89
2022-12-09T09:41:45.473Z,1.48
2022-12-09T09:44:21.167Z,1.23
2022-12-09T09:46:51.902Z,1.53
2022-12-09T09:49:26.261Z,1.81
2022-12-09T09:51:54.933Z,1.69
2022-12-09T09:54:23.497Z,1.46
2022-12-09T09:56:58.848Z,1.35
2022-12-09T09:59:39.192Z,1.59
2022-12-09T10:02:19.766Z,1.46
2022-12-09T10:05:04.532Z,1.42
2022-12-09T10:07:40.908Z,1.72
2022-12-09T10:10:22.961Z,1.58
2022-12-09T10:13:09.424Z,1.86
2022-12-09T10:15:48.489Z,1.64
2022-12-09T10:18:20.184Z,1.56
2022-12-09T10:20:48.923Z,1.62
2022-12-09T10:23:19.074Z,1.70
2022-12-09T10:25:52.216Z,1.86
2022-12-09T10:28:24.715Z,1.86
2022-12-09T10:30:54.901Z,2.19
2022-12-09T10:33:28.386Z,2.18
2022-12-09T10:35:56.894Z,1.97
2022-12-09T10:38:26.812Z,2.30
2022-12-09T10:41:02.196Z,2.30
2022-12-09T10:43:37.572Z,2.01
2022-12-09T10:46:19.153Z,2.25
2022-12-09T10:48:55.939Z,2.49
2022-12-09T10:51:27.427Z,3.05
2022-12-09T10:53:59.012Z,2.91
2022-12-09T10:56:29.934Z,2.60
2022-12-09T10:59:18.856Z,2.49
2022-12-09T11:01:51.773Z,2.33
2022-12-09T11:04:25.222Z,2.48
2022-12-09T11:06:59.407Z,2.92
2022-12-09T11:09:33.168Z,2.93
2022-12-09T11:12:02.269Z,2.59
2022-12-09T11:14:36.748Z,2.87
2022-12-09T11:17:18.662Z,2.99
2022-12-09T11:19:51.387Z,2.55
2022-12-09T11:22:36.462Z,2.46
2022-12-09T11:25:24.900Z,2.26
2022-12-09T11:27:55.501Z,2.22
2022-12-09T11:30:27.537Z,2.29
2022-12-09T11:33:19.605Z,2.18
2022-12-09T11:35:58.477Z,2.54
2022-12-09T11:38:35.647Z,2.40
2022-12-09T11:41:08.029Z,2.33
2022-12-09T11:43:42.475Z,2.39
2022-12-09T11:46:23.086Z,2.41
2022-12-09T11:48:56.714Z,2.47
2022-12-09T11:51:29.823Z,2.51
2022-12-09T11:54:03.641Z,2.64
2022-12-09T11:56:33.978Z,2.77
2022-12-09T11:59:05.549Z,2.52
2022-12-09T12:01:45.563Z,2.61
2022-12-09T12:04:17.781Z,2.44
2022-12-09T12:06:48.841Z,2.55
2022-12-09T12:09:23.389Z,2.56
2022-12-09T12:12:02.582Z,2.12
2022-12-09T12:14:31.573Z,2.13
2022-12-09T12:17:10.942Z,2.28
2022-12-09T12:19:41.051Z,2.34
2022-12-09T12:22:28.533Z,2.41
2022-12-09T12:25:17.513Z,2.24
2022-12-09T12:27:59.834Z,2.42
2022-12-09T12:30:40.464Z,2.26
2022-12-09T12:36:33.715Z,1.95
2022-12-09T12:39:14.720Z,1.77
2022-12-09T12:41:51.765Z,2.07
2022-12-09T12:45:10.967Z,2.00
2022-12-09T12:47:51.392Z,2.17
2022-12-09T12:51:01.873Z,2.16
2022-12-09T12:53:40.304Z,1.97
2022-12-09T12:56:12.337Z,1.94
2022-12-09T12:59:07.954Z,1.93
2022-12-09T13:01:53.965Z,2.10
2022-12-09T13:04:26.201Z,1.98
2022-12-09T13:07:06.424Z,2.04
2022-12-09T13:09:43.611Z,1.99
2022-12-09T13:12:16.815Z,2.11
2022-12-09T13:14:53.391Z,1.94
2022-12-09T13:17:24.518Z,2.15
2022-12-09T13:19:54.215Z,2.03
2022-12-09T13:22:34.276Z,2.03
2022-12-09T13:25:13.704Z,2.03
2022-12-09T13:27:46.195Z,2.01
2022-12-09T13:30:18.937Z,2.09
2022-12-09T13:33:02.371Z,2.15
2022-12-09T13:35:36.815Z,2.12
2022-12-09T13:38:25.767Z,1.99
2022-12-09T13:40:53.979Z,2.03
2022-12-09T13:43:25.748Z,2.25
2022-12-09T13:45:57.374Z,2.38
2022-12-09T13:48:45.333Z,2.30
2022-12-09T13:51:14.609Z,2.27
2022-12-09T13:54:01.199Z,2.22
2022-12-09T13:56:31.705Z,2.42
2022-12-09T13:59:32.719Z,2.37
2022-12-09T14:02:11.365Z,2.34
2022-12-09T14:04:47.755Z,2.48
2022-12-09T14:07:27.395Z,2.35
2022-12-09T14:09:58.142Z,2.24
2022-12-09T14:13:05.072Z,2.29
2022-12-09T14:15:39.249Z,2.27
2022-12-09T14:18:28.675Z,2.35
2022-12-09T14:21:31.531Z,2.35
2022-12-09T14:24:36.774Z,2.41
2022-12-09T14:27:17.492Z,2.40
2022-12-09T14:29:48.793Z,2.35
2022-12-09T14:32:26.037Z,2.28
2022-12-09T14:35:22.575Z,2.29
2022-12-09T14:38:02.825Z,2.28
2022-12-09T14:40:52.719Z,2.32
2022-12-09T14:43:50.484Z,2.27
2022-12-09T14:46:30.101Z,2.35
2022-12-09T14:49:02.554Z,2.31
2022-12-09T14:51:36.780Z,2.32
2022-12-09T14:54:26.135Z,2.28
2022-12-09T14:56:57.675Z,2.19
2022-12-09T14:59:29.115Z,2.24
2022-12-09T15:01:59.147Z,2.11
2022-12-09T15:04:31.389Z,2.11
2022-12-09T15:07:25.176Z,2.12
2022-12-09T15:09:55.825Z,2.17
2022-12-09T15:12:28.310Z,2.26
2022-12-09T15:15:00.853Z,2.12
2022-12-09T15:17:32.895Z,2.08
2022-12-09T15:20:12.159Z,2.06
2022-12-09T15:22:40.252Z,2.01
2022-12-09T15:25:18.174Z,1.88
2022-12-09T15:27:57.451Z,1.99
2022-12-09T15:30:31.324Z,1.96
2022-12-09T15:32:59.595Z,1.97
2022-12-09T15:35:29.765Z,1.99
2022-12-09T15:38:04.933Z,1.97
2022-12-09T15:40:35.807Z,2.00
2022-12-09T15:43:10.143Z,1.89
2022-12-09T15:45:44.109Z,1.88
2022-12-09T15:48:17.291Z,1.89
2022-12-09T15:50:50.996Z,1.86
2022-12-09T15:53:24.296Z,1.80
2022-12-09T15:55:55.120Z,1.85
2022-12-09T15:58:26.430Z,1.82
2022-12-09T16:00:56.322Z,1.91
2022-12-09T16:03:27.244Z,1.87
2022-12-09T16:05:58.861Z,1.87
2022-12-09T16:08:33.592Z,1.89
2022-12-09T16:11:01.948Z,1.85
2022-12-09T16:13:29.921Z,1.76
2022-12-09T16:16:00.804Z,1.80
2022-12-09T16:18:33.291Z,1.82
2022-12-09T16:21:26.638Z,1.89
2022-12-09T16:23:57.981Z,1.97
2022-12-09T16:26:30.878Z,1.86
2022-12-09T16:29:00.896Z,1.91
2022-12-09T16:31:30.749Z,1.87
2022-12-09T16:33:59.245Z,1.81
2022-12-09T16:36:29.495Z,1.85
2022-12-09T16:39:34.633Z,1.83
2022-12-09T16:42:03.413Z,1.89
2022-12-09T16:44:36.824Z,1.81
2022-12-09T16:47:17.447Z,1.83
2022-12-09T16:49:49.569Z,1.74
2022-12-09T16:52:21.233Z,1.61
2022-12-09T16:54:51.195Z,1.69
2022-12-09T16:57:21.324Z,1.66
2022-12-09T16:59:49.268Z,1.73
2022-12-09T17:02:22.534Z,1.73
2022-12-09T17:04:52.674Z,1.77
2022-12-09T17:07:20.694Z,1.65
2022-12-09T17:09:48.554Z,1.56
2022-12-09T17:12:16.482Z,1.57
2022-12-09T17:14:44.510Z,1.62
2022-12-09T17:17:12.522Z,1.67
2022-12-09T17:19:43.050Z,1.64
2022-12-09T17:22:11.839Z,1.59
2022-12-09T17:24:39.831Z,1.56
2022-12-09T17:27:07.876Z,1.58
2022-12-09T17:29:36.875Z,1.58
2022-12-09T17:32:05.632Z,1.47
2022-12-09T17:34:33.798Z,1.52
2022-12-09T17:37:03.058Z,1.45
2022-12-09T17:39:32.344Z,1.39
2022-12-09T17:42:00.404Z,1.35
2022-12-09T17:44:29.035Z,1.34
2022-12-09T17:46:57.379Z,1.38
2022-12-09T17:49:26.423Z,1.36
2022-12-09T17:51:59.656Z,1.25
2022-12-09T17:54:29.760Z,1.28
2022-12-09T17:56:57.738Z,1.21
2022-12-09T17:59:25.579Z,1.19
2022-12-09T18:01:53.474Z,1.16
2022-12-09T18:04:21.363Z,1.14
2022-12-09T18:06:49.370Z,1.05
2022-12-09T18:09:19.954Z,1.14
2022-12-09T18:11:50.891Z,1.18
2022-12-09T18:14:19.954Z,1.14
2022-12-09T18:16:49.200Z,1.14
2022-12-09T18:19:20.369Z,1.12
2022-12-09T18:21:48.414Z,1.16
2022-12-09T18:24:16.466Z,1.20
2022-12-09T18:26:45.224Z,1.10
2022-12-09T18:29:14.805Z,1.07
2022-12-09T18:31:45.657Z,0.95
2022-12-09T18:34:13.726Z,0.93
2022-12-09T18:36:41.819Z,0.86
2022-12-09T18:39:09.711Z,0.76
2022-12-09T18:41:37.602Z,0.70
2022-12-09T18:44:07.373Z,0.76
2022-12-09T18:46:39.222Z,0.72
2022-12-09T18:49:09.254Z,0.72
2022-12-09T18:51:38.917Z,0.73
2022-12-09T18:54:07.550Z,0.71
2022-12-09T18:56:36.621Z,0.72
2022-12-09T18:59:07.583Z,0.65
2022-12-09T19:01:40.304Z,0.65
2022-12-09T19:04:11.790Z,0.58
2022-12-09T19:06:41.434Z,0.44
2022-12-09T19:09:11.302Z,0.41
2022-12-09T19:11:43.777Z,0.39
2022-12-09T19:14:12.435Z,0.28
2022-12-09T19:16:42.575Z,0.16
2022-12-09T19:19:13.463Z,0.21
2022-12-09T19:21:41.776Z,0.23
2022-12-09T19:24:15.126Z,0.23
2022-12-09T19:26:43.945Z,0.20
2022-12-09T19:29:12.762Z,0.18
2022-12-09T19:31:44.307Z,0.10
2022-12-09T19:34:15.944Z,0.18
2022-12-09T19:36:45.318Z,0.22
2022-12-09T19:39:14.834Z,0.13
2022-12-09T19:41:43.947Z,0.20
2022-12-09T19:44:15.356Z,0.12
2022-12-09T19:46:45.275Z,0.10
2022-12-09T19:49:15.061Z,0.20
2022-12-09T19:51:44.492Z,0.22
2022-12-09T19:54:12.472Z,0.18
2022-12-09T19:56:41.020Z,0.21
2022-12-09T19:59:09.151Z,0.22
2022-12-09T20:01:39.080Z,0.24
2022-12-09T20:04:46.418Z,0.19
2022-12-09T20:07:02.453Z,0.18
2022-12-09T20:09:34.421Z,0.29
2022-12-09T20:12:02.308Z,0.48
2022-12-09T20:14:30.268Z,0.60
2022-12-09T20:16:58.172Z,0.54
2022-12-09T20:19:27.847Z,0.56
2022-12-09T20:21:55.833Z,0.50
2022-12-09T20:24:23.820Z,0.47
2022-12-09T20:26:51.869Z,0.51
2022-12-09T20:29:19.743Z,0.50
2022-12-09T20:31:47.814Z,0.58
2022-12-09T20:34:18.032Z,0.63
2022-12-09T20:36:48.569Z,0.61
2022-12-09T20:39:19.156Z,0.59
2022-12-09T20:41:48.078Z,0.58
2022-12-09T20:44:16.849Z,0.54
2022-12-09T20:46:47.731Z,0.53
2022-12-09T20:49:15.883Z,0.67
2022-12-09T20:51:45.410Z,0.49
2022-12-09T20:54:15.066Z,0.44
2022-12-09T20:56:47.695Z,0.51
2022-12-09T20:59:15.562Z,0.71
2022-12-09T21:01:47.098Z,0.66
2022-12-09T21:04:15.189Z,0.62
2022-12-09T21:06:43.822Z,0.58
2022-12-09T21:09:18.594Z,0.50
2022-12-09T21:11:46.967Z,0.53
2022-12-09T21:14:18.126Z,0.55
2022-12-09T21:16:50.595Z,0.53
2022-12-09T21:19:22.554Z,0.53
2022-12-09T21:21:50.851Z,0.54
2022-12-09T21:24:21.825Z,0.50
2022-12-09T21:26:53.067Z,0.53
2022-12-09T21:29:22.321Z,0.59
2022-12-09T21:31:54.494Z,0.61
2022-12-09T21:34:24.220Z,0.58
2022-12-09T21:36:52.872Z,0.55
2022-12-09T21:39:22.132Z,0.53
2022-12-09T21:41:50.469Z,0.60
2022-12-09T21:44:20.019Z,0.60
2022-12-09T21:46:47.829Z,0.52
2022-12-09T21:49:16.062Z,0.48
2022-12-09T21:51:44.734Z,0.48
2022-12-09T21:54:12.780Z,0.34
2022-12-09T21:56:43.776Z,0.30
2022-12-09T21:59:14.436Z,0.39
2022-12-09T22:01:43.740Z,0.37
2022-12-09T22:04:13.408Z,0.33
2022-12-09T22:06:41.546Z,0.27
2022-12-09T22:09:11.423Z,0.37
2022-12-09T22:11:41.384Z,0.43
2022-12-09T22:14:11.067Z,0.40
2022-12-09T22:16:41.583Z,0.32
2022-12-09T22:19:13.880Z,0.30
2022-12-09T22:21:42.191Z,0.43
2022-12-09T22:24:11.809Z,0.41
2022-12-09T22:26:43.576Z,0.40
2022-12-09T22:29:14.021Z,0.37
2022-12-09T22:31:43.254Z,0.33
2022-12-09T22:34:14.589Z,0.43
2022-12-09T22:36:43.106Z,0.42
2022-12-09T22:39:13.491Z,0.31
2022-12-09T22:41:43.803Z,0.44
2022-12-09T22:44:13.798Z,0.48
2022-12-09T22:46:42.794Z,0.52
2022-12-09T22:49:13.734Z,0.45
2022-12-09T22:51:42.621Z,0.44
2022-12-09T22:54:11.144Z,0.36
2022-12-09T22:56:41.133Z,0.34
2022-12-09T22:59:10.675Z,0.32
2022-12-09T23:01:38.968Z,0.32
2022-12-09T23:04:08.918Z,0.39
2022-12-09T23:06:39.222Z,0.40
2022-12-09T23:09:08.788Z,0.46
2022-12-09T23:11:37.698Z,0.44
2022-12-09T23:14:06.063Z,0.32
2022-12-09T23:16:35.320Z,0.25
2022-12-09T23:19:03.355Z,0.21
2022-12-09T23:21:33.240Z,0.15
2022-12-09T23:24:03.346Z,0.18
2022-12-09T23:26:34.418Z,0.11
2022-12-09T23:29:04.404Z,0.08
2022-12-09T23:31:37.578Z,0.12
2022-12-09T23:34:07.223Z,0.11
2022-12-09T23:36:37.179Z,0.19
2022-12-09T23:39:09.389Z,0.18
2022-12-09T23:41:37.734Z,0.17
2022-12-09T23:44:09.817Z,0.13
2022-12-09T23:46:39.813Z,0.15
2022-12-09T23:49:08.509Z,0.17
2022-12-09T23:51:39.507Z,0.13
2022-12-09T23:54:09.433Z,0.12
2022-12-09T23:56:39.924Z,0.13
2022-12-09T23:59:09.867Z,0.17
